sensor_id;sensor_type;location;lat;lon;timestamp;temperature;humidity
72128;DHT22;60000;51.030;7.024;2023-09-07T00:00:15;17.17;81.90
72128;DHT22;60000;51.030;7.024;2023-09-07T00:02:41;17.12;82.05
72128;DHT22;60000;51.030;7.024;2023-09-07T00:05:07;17.08;82.09
72128;DHT22;60000;51.030;7.024;2023-09-07T00:07:33;17.01;82.26
72128;DHT22;60000;51.030;7.024;2023-09-07T00:09:58;17.01;82.59
72128;DHT22;60000;51.030;7.024;2023-09-07T00:18:20;16.85;83.27
72128;DHT22;60000;51.030;7.024;2023-09-07T00:20:45;16.83;83.42
72128;DHT22;60000;51.030;7.024;2023-09-07T00:23:10;16.79;83.48
72128;DHT22;60000;51.030;7.024;2023-09-07T00:25:36;16.76;83.75
72128;DHT22;60000;51.030;7.024;2023-09-07T00:28:02;16.71;83.72
72128;DHT22;60000;51.030;7.024;2023-09-07T00:30:27;16.64;83.84
72128;DHT22;60000;51.030;7.024;2023-09-07T00:32:53;16.61;84.03
72128;DHT22;60000;51.030;7.024;2023-09-07T00:35:18;16.59;83.91
72128;DHT22;60000;51.030;7.024;2023-09-07T00:37:43;16.56;84.15
72128;DHT22;60000;51.030;7.024;2023-09-07T00:40:09;16.50;84.02
72128;DHT22;60000;51.030;7.024;2023-09-07T00:42:35;16.50;84.24
72128;DHT22;60000;51.030;7.024;2023-09-07T00:45:01;16.49;84.16
72128;DHT22;60000;51.030;7.024;2023-09-07T00:47:26;16.48;84.28
72128;DHT22;60000;51.030;7.024;2023-09-07T00:49:52;16.46;84.16
72128;DHT22;60000;51.030;7.024;2023-09-07T00:52:18;16.40;84.31
72128;DHT22;60000;51.030;7.024;2023-09-07T00:54:44;16.38;84.29
72128;DHT22;60000;51.030;7.024;2023-09-07T00:57:10;16.34;84.23
72128;DHT22;60000;51.030;7.024;2023-09-07T00:59:35;16.33;84.29
72128;DHT22;60000;51.030;7.024;2023-09-07T01:02:01;16.30;84.17
72128;DHT22;60000;51.030;7.024;2023-09-07T01:04:26;16.28;84.20
72128;DHT22;60000;51.030;7.024;2023-09-07T01:06:56;16.28;84.26
72128;DHT22;60000;51.030;7.024;2023-09-07T01:09:26;16.28;84.74
72128;DHT22;60000;51.030;7.024;2023-09-07T01:11:53;16.29;84.75
72128;DHT22;60000;51.030;7.024;2023-09-07T01:14:18;16.30;84.88
72128;DHT22;60000;51.030;7.024;2023-09-07T01:16:44;16.30;84.80
72128;DHT22;60000;51.030;7.024;2023-09-07T01:19:10;16.33;85.00
72128;DHT22;60000;51.030;7.024;2023-09-07T01:21:38;16.30;85.01
72128;DHT22;60000;51.030;7.024;2023-09-07T01:24:08;16.30;85.17
72128;DHT22;60000;51.030;7.024;2023-09-07T01:26:37;16.29;85.11
72128;DHT22;60000;51.030;7.024;2023-09-07T01:29:06;16.26;85.09
72128;DHT22;60000;51.030;7.024;2023-09-07T01:31:35;16.19;85.08
72128;DHT22;60000;51.030;7.024;2023-09-07T01:34:01;16.13;85.15
72128;DHT22;60000;51.030;7.024;2023-09-07T01:36:27;16.11;85.17
72128;DHT22;60000;51.030;7.024;2023-09-07T01:38:52;16.05;85.13
72128;DHT22;60000;51.030;7.024;2023-09-07T01:41:17;15.97;85.23
72128;DHT22;60000;51.030;7.024;2023-09-07T01:43:43;15.98;85.44
72128;DHT22;60000;51.030;7.024;2023-09-07T01:46:08;15.90;85.45
72128;DHT22;60000;51.030;7.024;2023-09-07T01:48:34;15.90;85.48
72128;DHT22;60000;51.030;7.024;2023-09-07T01:51:00;15.88;85.66
72128;DHT22;60000;51.030;7.024;2023-09-07T01:53:25;15.90;85.86
72128;DHT22;60000;51.030;7.024;2023-09-07T01:55:54;15.90;85.98
72128;DHT22;60000;51.030;7.024;2023-09-07T01:58:19;15.88;85.76
72128;DHT22;60000;51.030;7.024;2023-09-07T02:00:45;15.87;86.02
72128;DHT22;60000;51.030;7.024;2023-09-07T02:03:10;15.85;86.10
72128;DHT22;60000;51.030;7.024;2023-09-07T02:05:35;15.84;86.17
72128;DHT22;60000;51.030;7.024;2023-09-07T02:08:01;15.84;86.21
72128;DHT22;60000;51.030;7.024;2023-09-07T02:10:26;15.84;86.34
72128;DHT22;60000;51.030;7.024;2023-09-07T02:12:51;15.81;86.51
72128;DHT22;60000;51.030;7.024;2023-09-07T02:15:17;15.82;86.52
72128;DHT22;60000;51.030;7.024;2023-09-07T02:17:42;15.82;86.48
72128;DHT22;60000;51.030;7.024;2023-09-07T02:20:10;15.81;86.41
72128;DHT22;60000;51.030;7.024;2023-09-07T02:22:36;15.80;86.52
72128;DHT22;60000;51.030;7.024;2023-09-07T02:25:01;15.78;86.59
72128;DHT22;60000;51.030;7.024;2023-09-07T02:27:28;15.78;86.62
72128;DHT22;60000;51.030;7.024;2023-09-07T02:29:53;15.72;86.48
72128;DHT22;60000;51.030;7.024;2023-09-07T02:32:19;15.70;86.28
72128;DHT22;60000;51.030;7.024;2023-09-07T02:34:44;15.70;86.41
72128;DHT22;60000;51.030;7.024;2023-09-07T02:37:09;15.64;86.35
72128;DHT22;60000;51.030;7.024;2023-09-07T02:39:35;15.61;86.31
72128;DHT22;60000;51.030;7.024;2023-09-07T02:42:00;15.55;86.23
72128;DHT22;60000;51.030;7.024;2023-09-07T02:44:25;15.51;86.29
72128;DHT22;60000;51.030;7.024;2023-09-07T02:46:51;15.47;86.36
72128;DHT22;60000;51.030;7.024;2023-09-07T02:49:16;15.44;86.35
72128;DHT22;60000;51.030;7.024;2023-09-07T02:51:41;15.43;86.68
72128;DHT22;60000;51.030;7.024;2023-09-07T02:54:07;15.44;86.84
72128;DHT22;60000;51.030;7.024;2023-09-07T02:56:32;15.37;86.61
72128;DHT22;60000;51.030;7.024;2023-09-07T02:58:57;15.37;86.69
72128;DHT22;60000;51.030;7.024;2023-09-07T03:01:23;15.34;86.63
72128;DHT22;60000;51.030;7.024;2023-09-07T03:03:48;15.36;86.63
72128;DHT22;60000;51.030;7.024;2023-09-07T03:06:14;15.31;86.71
72128;DHT22;60000;51.030;7.024;2023-09-07T03:08:42;15.29;86.74
72128;DHT22;60000;51.030;7.024;2023-09-07T03:11:08;15.31;86.93
72128;DHT22;60000;51.030;7.024;2023-09-07T03:13:33;15.33;87.17
72128;DHT22;60000;51.030;7.024;2023-09-07T03:15:59;15.33;87.13
72128;DHT22;60000;51.030;7.024;2023-09-07T03:18:25;15.31;87.10
72128;DHT22;60000;51.030;7.024;2023-09-07T03:20:53;15.29;86.96
72128;DHT22;60000;51.030;7.024;2023-09-07T03:23:18;15.26;86.78
72128;DHT22;60000;51.030;7.024;2023-09-07T03:25:44;15.23;86.77
72128;DHT22;60000;51.030;7.024;2023-09-07T03:28:09;15.20;87.05
72128;DHT22;60000;51.030;7.024;2023-09-07T03:30:34;15.12;86.93
72128;DHT22;60000;51.030;7.024;2023-09-07T03:32:59;15.09;87.13
72128;DHT22;60000;51.030;7.024;2023-09-07T03:35:25;15.10;87.32
72128;DHT22;60000;51.030;7.024;2023-09-07T03:37:51;15.06;87.40
72128;DHT22;60000;51.030;7.024;2023-09-07T03:40:16;15.07;87.57
72128;DHT22;60000;51.030;7.024;2023-09-07T03:42:41;15.02;87.36
72128;DHT22;60000;51.030;7.024;2023-09-07T03:45:08;14.98;87.30
72128;DHT22;60000;51.030;7.024;2023-09-07T03:47:34;14.96;87.44
72128;DHT22;60000;51.030;7.024;2023-09-07T03:49:59;14.93;87.30
72128;DHT22;60000;51.030;7.024;2023-09-07T03:52:25;14.92;87.38
72128;DHT22;60000;51.030;7.024;2023-09-07T03:54:53;14.86;87.45
72128;DHT22;60000;51.030;7.024;2023-09-07T03:57:19;14.88;87.53
72128;DHT22;60000;51.030;7.024;2023-09-07T03:59:45;14.82;87.30
72128;DHT22;60000;51.030;7.024;2023-09-07T04:02:10;14.79;87.21
72128;DHT22;60000;51.030;7.024;2023-09-07T04:04:36;14.75;87.11
72128;DHT22;60000;51.030;7.024;2023-09-07T04:07:01;14.76;87.34
72128;DHT22;60000;51.030;7.024;2023-09-07T04:09:27;14.75;87.38
72128;DHT22;60000;51.030;7.024;2023-09-07T04:11:52;14.73;87.39
72128;DHT22;60000;51.030;7.024;2023-09-07T04:14:17;14.71;87.51
72128;DHT22;60000;51.030;7.024;2023-09-07T04:16:42;14.67;87.29
72128;DHT22;60000;51.030;7.024;2023-09-07T04:19:08;14.65;87.12
72128;DHT22;60000;51.030;7.024;2023-09-07T04:21:35;14.62;87.23
72128;DHT22;60000;51.030;7.024;2023-09-07T04:24:01;14.60;87.51
72128;DHT22;60000;51.030;7.024;2023-09-07T04:26:26;14.61;87.67
72128;DHT22;60000;51.030;7.024;2023-09-07T04:28:51;14.58;87.41
72128;DHT22;60000;51.030;7.024;2023-09-07T04:31:17;14.52;87.47
72128;DHT22;60000;51.030;7.024;2023-09-07T04:33:42;14.48;87.31
72128;DHT22;60000;51.030;7.024;2023-09-07T04:36:11;14.46;87.47
72128;DHT22;60000;51.030;7.024;2023-09-07T04:38:38;14.46;87.39
72128;DHT22;60000;51.030;7.024;2023-09-07T04:41:11;14.41;87.57
72128;DHT22;60000;51.030;7.024;2023-09-07T04:43:37;14.41;87.81
72128;DHT22;60000;51.030;7.024;2023-09-07T04:46:05;14.38;87.78
72128;DHT22;60000;51.030;7.024;2023-09-07T04:48:32;14.34;87.73
72128;DHT22;60000;51.030;7.024;2023-09-07T04:51:01;14.33;88.03
72128;DHT22;60000;51.030;7.024;2023-09-07T04:53:29;14.27;87.89
72128;DHT22;60000;51.030;7.024;2023-09-07T04:55:55;14.25;88.09
72128;DHT22;60000;51.030;7.024;2023-09-07T04:58:20;14.25;88.25
72128;DHT22;60000;51.030;7.024;2023-09-07T05:00:45;14.24;88.37
72128;DHT22;60000;51.030;7.024;2023-09-07T05:03:14;14.20;88.51
72128;DHT22;60000;51.030;7.024;2023-09-07T05:05:39;14.21;88.70
72128;DHT22;60000;51.030;7.024;2023-09-07T05:08:06;14.18;88.71
72128;DHT22;60000;51.030;7.024;2023-09-07T05:10:34;14.18;88.80
72128;DHT22;60000;51.030;7.024;2023-09-07T05:13:00;14.16;88.81
72128;DHT22;60000;51.030;7.024;2023-09-07T05:15:26;14.13;88.76
72128;DHT22;60000;51.030;7.024;2023-09-07T05:17:52;14.13;88.74
72128;DHT22;60000;51.030;7.024;2023-09-07T05:20:17;14.10;88.81
72128;DHT22;60000;51.030;7.024;2023-09-07T05:22:42;14.12;89.03
72128;DHT22;60000;51.030;7.024;2023-09-07T05:25:08;14.12;89.23
72128;DHT22;60000;51.030;7.024;2023-09-07T05:27:35;14.12;89.13
72128;DHT22;60000;51.030;7.024;2023-09-07T05:30:01;14.12;88.99
72128;DHT22;60000;51.030;7.024;2023-09-07T05:32:26;14.12;89.01
72128;DHT22;60000;51.030;7.024;2023-09-07T05:34:52;14.13;89.06
72128;DHT22;60000;51.030;7.024;2023-09-07T05:37:17;14.12;88.94
72128;DHT22;60000;51.030;7.024;2023-09-07T05:39:42;14.13;88.99
72128;DHT22;60000;51.030;7.024;2023-09-07T05:42:08;14.14;88.91
72128;DHT22;60000;51.030;7.024;2023-09-07T05:44:33;14.17;88.86
72128;DHT22;60000;51.030;7.024;2023-09-07T05:46:58;14.18;88.90
72128;DHT22;60000;51.030;7.024;2023-09-07T05:49:24;14.24;88.98
72128;DHT22;60000;51.030;7.024;2023-09-07T05:51:49;14.30;89.43
72128;DHT22;60000;51.030;7.024;2023-09-07T05:54:15;14.38;89.50
72128;DHT22;60000;51.030;7.024;2023-09-07T05:56:40;14.45;89.70
72128;DHT22;60000;51.030;7.024;2023-09-07T05:59:05;14.54;89.90
72128;DHT22;60000;51.030;7.024;2023-09-07T06:01:31;14.61;89.91
72128;DHT22;60000;51.030;7.024;2023-09-07T06:03:57;14.69;90.09
72128;DHT22;60000;51.030;7.024;2023-09-07T06:06:23;14.75;89.91
72128;DHT22;60000;51.030;7.024;2023-09-07T06:08:48;14.79;89.92
72128;DHT22;60000;51.030;7.024;2023-09-07T06:11:14;14.85;90.04
72128;DHT22;60000;51.030;7.024;2023-09-07T06:13:39;14.92;90.12
72128;DHT22;60000;51.030;7.024;2023-09-07T06:16:04;14.98;90.12
72128;DHT22;60000;51.030;7.024;2023-09-07T06:18:30;15.04;90.04
72128;DHT22;60000;51.030;7.024;2023-09-07T06:20:55;15.12;90.00
72128;DHT22;60000;51.030;7.024;2023-09-07T06:23:20;15.18;90.13
72128;DHT22;60000;51.030;7.024;2023-09-07T06:25:46;15.22;89.96
72128;DHT22;60000;51.030;7.024;2023-09-07T06:28:11;15.31;90.05
72128;DHT22;60000;51.030;7.024;2023-09-07T06:30:36;15.36;89.94
72128;DHT22;60000;51.030;7.024;2023-09-07T06:33:02;15.46;89.88
72128;DHT22;60000;51.030;7.024;2023-09-07T06:35:27;15.50;89.94
72128;DHT22;60000;51.030;7.024;2023-09-07T06:37:52;15.61;89.76
72128;DHT22;60000;51.030;7.024;2023-09-07T06:40:18;15.71;89.66
72128;DHT22;60000;51.030;7.024;2023-09-07T06:42:44;15.81;89.80
72128;DHT22;60000;51.030;7.024;2023-09-07T06:45:09;15.94;89.61
72128;DHT22;60000;51.030;7.024;2023-09-07T06:47:35;16.02;89.23
72128;DHT22;60000;51.030;7.024;2023-09-07T06:50:00;16.12;89.00
72128;DHT22;60000;51.030;7.024;2023-09-07T06:52:25;16.29;89.90
72128;DHT22;60000;51.030;7.024;2023-09-07T06:54:52;16.84;92.84
72128;DHT22;60000;51.030;7.024;2023-09-07T06:57:18;17.36;91.78
72128;DHT22;60000;51.030;7.024;2023-09-07T06:59:43;17.83;88.69
72128;DHT22;60000;51.030;7.024;2023-09-07T07:02:08;18.40;87.13
72128;DHT22;60000;51.030;7.024;2023-09-07T07:04:33;18.91;84.26
72128;DHT22;60000;51.030;7.024;2023-09-07T07:07:00;19.41;81.73
72128;DHT22;60000;51.030;7.024;2023-09-07T07:09:29;19.91;79.07
72128;DHT22;60000;51.030;7.024;2023-09-07T07:11:54;20.35;77.41
72128;DHT22;60000;51.030;7.024;2023-09-07T07:14:20;20.74;75.61
72128;DHT22;60000;51.030;7.024;2023-09-07T07:16:45;21.11;73.63
72128;DHT22;60000;51.030;7.024;2023-09-07T07:19:10;21.45;72.36
72128;DHT22;60000;51.030;7.024;2023-09-07T07:21:36;21.78;71.42
72128;DHT22;60000;51.030;7.024;2023-09-07T07:24:01;22.11;70.44
72128;DHT22;60000;51.030;7.024;2023-09-07T07:26:26;22.34;68.69
72128;DHT22;60000;51.030;7.024;2023-09-07T07:28:52;22.71;68.13
72128;DHT22;60000;51.030;7.024;2023-09-07T07:31:17;23.02;66.74
72128;DHT22;60000;51.030;7.024;2023-09-07T07:33:42;23.29;65.47
72128;DHT22;60000;51.030;7.024;2023-09-07T07:36:08;23.57;63.85
72128;DHT22;60000;51.030;7.024;2023-09-07T07:38:34;23.82;62.90
72128;DHT22;60000;51.030;7.024;2023-09-07T07:41:00;24.11;62.25
72128;DHT22;60000;51.030;7.024;2023-09-07T07:43:25;24.39;61.62
72128;DHT22;60000;51.030;7.024;2023-09-07T07:45:53;24.70;60.56
72128;DHT22;60000;51.030;7.024;2023-09-07T07:48:18;24.84;59.27
72128;DHT22;60000;51.030;7.024;2023-09-07T07:50:44;25.15;59.24
72128;DHT22;60000;51.030;7.024;2023-09-07T07:53:09;25.58;59.45
72128;DHT22;60000;51.030;7.024;2023-09-07T07:55:38;25.94;56.66
72128;DHT22;60000;51.030;7.024;2023-09-07T07:58:08;26.30;56.69
72128;DHT22;60000;51.030;7.024;2023-09-07T08:00:39;26.72;55.24
72128;DHT22;60000;51.030;7.024;2023-09-07T08:03:12;26.98;53.95
72128;DHT22;60000;51.030;7.024;2023-09-07T08:05:38;27.13;52.94
72128;DHT22;60000;51.030;7.024;2023-09-07T08:08:05;27.09;51.75
72128;DHT22;60000;51.030;7.024;2023-09-07T08:10:33;27.19;52.86
72128;DHT22;60000;51.030;7.024;2023-09-07T08:12:59;27.38;51.69
72128;DHT22;60000;51.030;7.024;2023-09-07T08:15:24;27.53;52.36
72128;DHT22;60000;51.030;7.024;2023-09-07T08:17:51;27.64;51.34
72128;DHT22;60000;51.030;7.024;2023-09-07T08:20:16;27.84;51.46
72128;DHT22;60000;51.030;7.024;2023-09-07T08:22:41;28.01;50.97
72128;DHT22;60000;51.030;7.024;2023-09-07T08:25:11;28.11;50.58
72128;DHT22;60000;51.030;7.024;2023-09-07T08:27:39;28.12;48.55
72128;DHT22;60000;51.030;7.024;2023-09-07T08:30:05;28.31;49.58
72128;DHT22;60000;51.030;7.024;2023-09-07T08:32:31;28.60;47.32
72128;DHT22;60000;51.030;7.024;2023-09-07T08:34:57;28.89;46.44
72128;DHT22;60000;51.030;7.024;2023-09-07T08:37:26;28.93;46.12
72128;DHT22;60000;51.030;7.024;2023-09-07T08:39:51;29.08;46.55
72128;DHT22;60000;51.030;7.024;2023-09-07T08:42:16;29.08;44.82
72128;DHT22;60000;51.030;7.024;2023-09-07T08:44:45;29.23;45.42
72128;DHT22;60000;51.030;7.024;2023-09-07T08:47:12;29.30;44.99
72128;DHT22;60000;51.030;7.024;2023-09-07T08:49:40;29.31;44.71
72128;DHT22;60000;51.030;7.024;2023-09-07T08:52:06;29.45;45.21
72128;DHT22;60000;51.030;7.024;2023-09-07T08:54:33;29.51;44.88
72128;DHT22;60000;51.030;7.024;2023-09-07T08:56:58;29.68;45.10
72128;DHT22;60000;51.030;7.024;2023-09-07T08:59:23;29.72;44.36
72128;DHT22;60000;51.030;7.024;2023-09-07T09:01:49;29.59;43.21
72128;DHT22;60000;51.030;7.024;2023-09-07T09:04:15;29.30;43.13
72128;DHT22;60000;51.030;7.024;2023-09-07T09:06:40;29.23;45.42
72128;DHT22;60000;51.030;7.024;2023-09-07T09:09:06;29.20;45.17
72128;DHT22;60000;51.030;7.024;2023-09-07T09:11:31;29.10;44.16
72128;DHT22;60000;51.030;7.024;2023-09-07T09:13:57;29.02;45.31
72128;DHT22;60000;51.030;7.024;2023-09-07T09:16:22;29.17;45.55
72128;DHT22;60000;51.030;7.024;2023-09-07T09:21:14;29.14;45.03
72128;DHT22;60000;51.030;7.024;2023-09-07T09:23:41;29.11;44.33
72128;DHT22;60000;51.030;7.024;2023-09-07T09:26:06;29.00;44.19
72128;DHT22;60000;51.030;7.024;2023-09-07T09:28:33;28.96;44.38
72128;DHT22;60000;51.030;7.024;2023-09-07T09:30:59;29.10;45.54
72128;DHT22;60000;51.030;7.024;2023-09-07T09:33:25;29.37;44.82
72128;DHT22;60000;51.030;7.024;2023-09-07T09:35:52;29.41;44.18
72128;DHT22;60000;51.030;7.024;2023-09-07T09:38:18;29.58;45.59
72128;DHT22;60000;51.030;7.024;2023-09-07T09:40:44;29.79;45.84
72128;DHT22;60000;51.030;7.024;2023-09-07T09:43:09;30.08;44.35
72128;DHT22;60000;51.030;7.024;2023-09-07T09:45:37;30.37;44.27
72128;DHT22;60000;51.030;7.024;2023-09-07T09:48:03;30.59;42.48
72128;DHT22;60000;51.030;7.024;2023-09-07T09:50:30;30.74;42.55
72128;DHT22;60000;51.030;7.024;2023-09-07T09:52:56;30.91;41.63
72128;DHT22;60000;51.030;7.024;2023-09-07T09:55:23;30.74;41.94
72128;DHT22;60000;51.030;7.024;2023-09-07T09:57:49;30.84;43.06
72128;DHT22;60000;51.030;7.024;2023-09-07T10:00:15;30.99;42.24
72128;DHT22;60000;51.030;7.024;2023-09-07T10:02:50;31.14;40.85
72128;DHT22;60000;51.030;7.024;2023-09-07T10:05:17;30.91;41.09
72128;DHT22;60000;51.030;7.024;2023-09-07T10:07:44;30.95;41.97
72128;DHT22;60000;51.030;7.024;2023-09-07T10:10:12;31.16;42.46
72128;DHT22;60000;51.030;7.024;2023-09-07T10:12:42;31.22;42.20
72128;DHT22;60000;51.030;7.024;2023-09-07T10:15:25;31.53;42.63
72128;DHT22;60000;51.030;7.024;2023-09-07T10:18:05;31.79;40.79
72128;DHT22;60000;51.030;7.024;2023-09-07T10:20:46;31.87;40.78
72128;DHT22;60000;51.030;7.024;2023-09-07T10:23:13;32.00;40.34
72128;DHT22;60000;51.030;7.024;2023-09-07T10:25:38;32.19;40.47
72128;DHT22;60000;51.030;7.024;2023-09-07T10:28:03;32.27;39.79
72128;DHT22;60000;51.030;7.024;2023-09-07T10:30:29;32.52;41.14
72128;DHT22;60000;51.030;7.024;2023-09-07T10:32:54;32.75;40.77
72128;DHT22;60000;51.030;7.024;2023-09-07T10:35:20;32.99;40.40
72128;DHT22;60000;51.030;7.024;2023-09-07T10:37:50;33.10;40.31
72128;DHT22;60000;51.030;7.024;2023-09-07T10:40:22;33.30;39.16
72128;DHT22;60000;51.030;7.024;2023-09-07T10:42:47;33.42;38.86
72128;DHT22;60000;51.030;7.024;2023-09-07T10:45:16;33.49;37.81
72128;DHT22;60000;51.030;7.024;2023-09-07T10:47:45;33.33;37.87
72128;DHT22;60000;51.030;7.024;2023-09-07T10:50:11;33.42;38.72
72128;DHT22;60000;51.030;7.024;2023-09-07T10:52:38;33.67;38.68
72128;DHT22;60000;51.030;7.024;2023-09-07T10:55:05;33.76;38.10
72128;DHT22;60000;51.030;7.024;2023-09-07T10:57:30;33.80;38.23
72128;DHT22;60000;51.030;7.024;2023-09-07T10:59:56;33.80;37.64
72128;DHT22;60000;51.030;7.024;2023-09-07T11:02:21;33.84;37.12
72128;DHT22;60000;51.030;7.024;2023-09-07T11:04:46;33.77;37.37
72128;DHT22;60000;51.030;7.024;2023-09-07T11:07:12;33.77;37.86
72128;DHT22;60000;51.030;7.024;2023-09-07T11:09:42;33.70;37.97
72128;DHT22;60000;51.030;7.024;2023-09-07T11:12:07;33.49;37.35
72128;DHT22;60000;51.030;7.024;2023-09-07T11:14:34;33.13;37.91
72128;DHT22;60000;51.030;7.024;2023-09-07T11:17:02;33.02;37.62
72128;DHT22;60000;51.030;7.024;2023-09-07T11:19:32;32.89;37.65
72128;DHT22;60000;51.030;7.024;2023-09-07T11:21:57;32.65;37.72
72128;DHT22;60000;51.030;7.024;2023-09-07T11:24:23;32.41;38.51
72128;DHT22;60000;51.030;7.024;2023-09-07T11:26:49;32.35;39.32
72128;DHT22;60000;51.030;7.024;2023-09-07T11:29:18;32.32;38.45
72128;DHT22;60000;51.030;7.024;2023-09-07T11:31:46;32.28;38.11
72128;DHT22;60000;51.030;7.024;2023-09-07T11:34:15;32.37;38.96
72128;DHT22;60000;51.030;7.024;2023-09-07T11:36:41;32.38;39.43
72128;DHT22;60000;51.030;7.024;2023-09-07T11:39:07;32.44;40.14
72128;DHT22;60000;51.030;7.024;2023-09-07T11:41:46;32.52;40.15
72128;DHT22;60000;51.030;7.024;2023-09-07T11:44:11;32.59;39.78
72128;DHT22;60000;51.030;7.024;2023-09-07T11:46:37;32.58;39.31
72128;DHT22;60000;51.030;7.024;2023-09-07T11:49:03;32.57;39.09
72128;DHT22;60000;51.030;7.024;2023-09-07T11:51:30;32.57;39.03
72128;DHT22;60000;51.030;7.024;2023-09-07T11:53:55;32.52;38.38
72128;DHT22;60000;51.030;7.024;2023-09-07T11:56:21;32.37;38.40
72128;DHT22;60000;51.030;7.024;2023-09-07T11:58:46;32.30;38.98
72128;DHT22;60000;51.030;7.024;2023-09-07T12:01:11;32.23;39.04
72128;DHT22;60000;51.030;7.024;2023-09-07T12:03:37;32.11;38.97
72128;DHT22;60000;51.030;7.024;2023-09-07T12:06:02;31.98;38.46
72128;DHT22;60000;51.030;7.024;2023-09-07T12:08:28;31.93;39.02
72128;DHT22;60000;51.030;7.024;2023-09-07T12:10:53;31.82;39.54
72128;DHT22;60000;51.030;7.024;2023-09-07T12:13:18;31.69;39.36
72128;DHT22;60000;51.030;7.024;2023-09-07T12:15:43;31.65;39.27
72128;DHT22;60000;51.030;7.024;2023-09-07T12:18:09;31.54;39.28
72128;DHT22;60000;51.030;7.024;2023-09-07T12:20:34;31.35;38.85
72128;DHT22;60000;51.030;7.024;2023-09-07T12:23:00;31.25;39.13
72128;DHT22;60000;51.030;7.024;2023-09-07T12:25:27;31.15;39.75
72128;DHT22;60000;51.030;7.024;2023-09-07T12:27:52;31.14;40.12
72128;DHT22;60000;51.030;7.024;2023-09-07T12:30:19;31.14;40.58
72128;DHT22;60000;51.030;7.024;2023-09-07T12:32:45;31.10;40.47
72128;DHT22;60000;51.030;7.024;2023-09-07T12:35:11;30.92;38.99
72128;DHT22;60000;51.030;7.024;2023-09-07T12:37:36;30.95;39.94
72128;DHT22;60000;51.030;7.024;2023-09-07T12:40:03;30.92;40.47
72128;DHT22;60000;51.030;7.024;2023-09-07T12:42:36;30.85;40.48
72128;DHT22;60000;51.030;7.024;2023-09-07T12:45:02;30.85;41.52
72128;DHT22;60000;51.030;7.024;2023-09-07T12:47:29;30.81;42.11
72128;DHT22;60000;51.030;7.024;2023-09-07T12:49:55;30.71;42.06
72128;DHT22;60000;51.030;7.024;2023-09-07T12:52:21;30.64;42.22
72128;DHT22;60000;51.030;7.024;2023-09-07T12:54:46;30.59;42.37
72128;DHT22;60000;51.030;7.024;2023-09-07T12:57:12;30.54;42.46
72128;DHT22;60000;51.030;7.024;2023-09-07T12:59:38;30.54;42.30
72128;DHT22;60000;51.030;7.024;2023-09-07T13:02:03;30.47;41.68
72128;DHT22;60000;51.030;7.024;2023-09-07T13:04:28;30.43;40.88
72128;DHT22;60000;51.030;7.024;2023-09-07T13:06:55;30.40;40.93
72128;DHT22;60000;51.030;7.024;2023-09-07T13:09:20;30.29;39.79
72128;DHT22;60000;51.030;7.024;2023-09-07T13:11:45;30.25;39.77
72128;DHT22;60000;51.030;7.024;2023-09-07T13:14:11;30.23;39.51
72128;DHT22;60000;51.030;7.024;2023-09-07T13:16:36;30.22;39.30
72128;DHT22;60000;51.030;7.024;2023-09-07T13:19:02;30.20;40.18
72128;DHT22;60000;51.030;7.024;2023-09-07T13:21:27;30.22;40.01
72128;DHT22;60000;51.030;7.024;2023-09-07T13:23:52;30.22;40.21
72128;DHT22;60000;51.030;7.024;2023-09-07T13:26:17;30.20;40.20
72128;DHT22;60000;51.030;7.024;2023-09-07T13:28:43;30.15;39.52
72128;DHT22;60000;51.030;7.024;2023-09-07T13:31:08;30.13;38.97
72128;DHT22;60000;51.030;7.024;2023-09-07T13:33:34;30.16;39.47
72128;DHT22;60000;51.030;7.024;2023-09-07T13:35:59;30.15;38.97
72128;DHT22;60000;51.030;7.024;2023-09-07T13:38:24;30.19;40.03
72128;DHT22;60000;51.030;7.024;2023-09-07T13:40:50;30.23;40.28
72128;DHT22;60000;51.030;7.024;2023-09-07T13:43:15;30.22;40.60
72128;DHT22;60000;51.030;7.024;2023-09-07T13:45:40;30.22;40.74
72128;DHT22;60000;51.030;7.024;2023-09-07T13:48:06;30.20;40.77
72128;DHT22;60000;51.030;7.024;2023-09-07T13:50:31;30.19;40.55
72128;DHT22;60000;51.030;7.024;2023-09-07T13:52:56;30.19;39.64
72128;DHT22;60000;51.030;7.024;2023-09-07T13:55:22;30.15;38.45
72128;DHT22;60000;51.030;7.024;2023-09-07T13:57:48;30.25;39.15
72128;DHT22;60000;51.030;7.024;2023-09-07T14:00:14;30.22;37.96
72128;DHT22;60000;51.030;7.024;2023-09-07T14:02:39;30.20;37.38
72128;DHT22;60000;51.030;7.024;2023-09-07T14:05:05;30.20;37.38
72128;DHT22;60000;51.030;7.024;2023-09-07T14:07:30;30.26;37.86
72128;DHT22;60000;51.030;7.024;2023-09-07T14:09:56;30.29;37.78
72128;DHT22;60000;51.030;7.024;2023-09-07T14:12:21;30.27;37.51
72128;DHT22;60000;51.030;7.024;2023-09-07T14:14:47;30.29;37.46
72128;DHT22;60000;51.030;7.024;2023-09-07T14:17:12;30.27;37.23
72128;DHT22;60000;51.030;7.024;2023-09-07T14:19:38;30.27;37.46
72128;DHT22;60000;51.030;7.024;2023-09-07T14:22:03;30.30;38.20
72128;DHT22;60000;51.030;7.024;2023-09-07T14:24:29;30.33;38.07
72128;DHT22;60000;51.030;7.024;2023-09-07T14:26:54;30.32;37.48
72128;DHT22;60000;51.030;7.024;2023-09-07T14:29:19;30.34;37.59
72128;DHT22;60000;51.030;7.024;2023-09-07T14:31:45;30.33;37.18
72128;DHT22;60000;51.030;7.024;2023-09-07T14:34:11;30.30;37.24
72128;DHT22;60000;51.030;7.024;2023-09-07T14:36:37;30.32;37.24
72128;DHT22;60000;51.030;7.024;2023-09-07T14:39:04;30.30;37.06
72128;DHT22;60000;51.030;7.024;2023-09-07T14:41:29;30.33;37.18
72128;DHT22;60000;51.030;7.024;2023-09-07T14:43:55;30.37;37.61
72128;DHT22;60000;51.030;7.024;2023-09-07T14:46:21;30.36;36.89
72128;DHT22;60000;51.030;7.024;2023-09-07T14:48:48;30.37;36.67
72128;DHT22;60000;51.030;7.024;2023-09-07T14:51:14;30.39;37.21
72128;DHT22;60000;51.030;7.024;2023-09-07T14:53:39;30.40;36.45
72128;DHT22;60000;51.030;7.024;2023-09-07T14:56:05;30.39;35.69
72128;DHT22;60000;51.030;7.024;2023-09-07T14:58:30;30.41;35.63
72128;DHT22;60000;51.030;7.024;2023-09-07T15:00:56;30.47;35.54
72128;DHT22;60000;51.030;7.024;2023-09-07T15:03:23;30.52;34.98
72128;DHT22;60000;51.030;7.024;2023-09-07T15:05:48;30.50;34.62
72128;DHT22;60000;51.030;7.024;2023-09-07T15:08:13;30.48;34.15
72128;DHT22;60000;51.030;7.024;2023-09-07T15:10:39;30.54;34.87
72128;DHT22;60000;51.030;7.024;2023-09-07T15:13:05;30.53;34.85
72128;DHT22;60000;51.030;7.024;2023-09-07T15:15:32;30.52;34.58
72128;DHT22;60000;51.030;7.024;2023-09-07T15:18:02;30.54;34.37
72128;DHT22;60000;51.030;7.024;2023-09-07T15:20:27;30.57;34.57
72128;DHT22;60000;51.030;7.024;2023-09-07T15:22:53;30.54;34.24
72128;DHT22;60000;51.030;7.024;2023-09-07T15:25:18;30.57;34.49
72128;DHT22;60000;51.030;7.024;2023-09-07T15:27:44;30.60;34.43
72128;DHT22;60000;51.030;7.024;2023-09-07T15:30:13;30.56;35.08